Página principal
METAR-TAF:

METAR-TAF

Aeroportos :

Ilha da Boa Vista, Cabo Verde

Aeroporto Internacional Aristides Pereira

latitude: 16-08-15N, longitude: 22-53-22W, altura: 21 m

Observação actual do tempo

O boletim foi feito há 34 minutos, às 14:00 UTC
Vento 12 kt de norte
Temperatura 25°C
Humidade 61%
Pressão 1013 hPa
Visibilidade 10 km ou mais
Encobertoa uma altura de 1500 ft

METAR: GVBA 181400Z 01012KT 9999 OVC015 25/17 Q1013 NOSIG

Hora: 13:34 (14:34 UTC)

Previsão

O boletim foi feito há 3 horas e 34 minutos, às 11:00 UTC
Previsão válida de 18 às 12 UTC a 19 às 18 UTC
Vento 8 kt de nor-nordeste
Visibilidade 10 km ou mais
Nuvens dispersasa uma altura de 1300 ft
Nuvens fragmentadasa uma altura de 1800 ft
Temporariamente
de 19 às 03 UTC a 19 às 07 UTC
Vento 2 kt com direcção variável
Probabilidade 30% :
Temporariamente
de 19 às 07 UTC a 19 às 11 UTC
chuva fraca

TAF: GVBA 181100Z 1812/1918 02008KT 9999 SCT013 BKN018 TEMPO 1903/1907 VRB02KT PROB30 TEMPO 1907/1911 -RA

Observações e previsões do tempo de mais de 4000 aeroportos (mensagens METAR e TAF).

As estações disponíveis são os pontos amarelos e vermelhos sobre o mapa.

Mova o rato sobre o mapa para ver o nome da estação.

Depois clique no ponto para visualizar as observações e previsões meteorológicas.

Para alterar o mapa : clique nos botões verdes com uma cruz preta para aumentar o zoom; no botão verde com uma pitada de zoom; ou nas setas verdes para mapas adjacentes.


METAR-TAF: